Terminal Aerodrome Forecast
Issued by NWS Dallas/Fort Worth, TX

Home | Current Version | Previous Version | Text Only | Print | Product List | Glossary On
Versions: 1 2 3 4 5 6 7 8 9 10 11 12 13 14 15 16 17 18 19 20 21 22 23 24 25 26 27 28 29 30 31
000
FTUS44 KFWD 181700
TAFACT
TAF
KACT 181740Z 1818/1918 15005KT P6SM VCTS BKN030CB
      TEMPO 1819/1823 5SM -TSRA
     FM182300 16004KT P6SM BKN120
     FM190600 14008KT P6SM BKN015
     FM190800 14008KT P6SM OVC007
     FM191500 09005KT P6SM OVC015=

USA.gov is the U.S. government's official web portal to all federal, state and local government web resources and services.